Terminal Aerodrome Forecast
Issued by NWS Blacksburg, VA

Home | Current Version | Previous Version | Text Only | Print | Product List | Glossary On
Versions: 1 2 3 4 5 6 7 8 9 10 11 12 13 14 15 16
000
FTUS41 KRNK 172326
TAFLYH
TAF
KLYH 172326Z 1800/1824 01003KT P6SM BKN035 OVC060
     FM180100 01005KT P6SM -SN BKN050
     FM181000 28008KT P6SM SCT250
     FM181700 27010KT P6SM SKC=

USA.gov is the U.S. government's official web portal to all federal, state and local government web resources and services.